Arbil, Iraq
Current Conditions -  °F | °C
As of 3:00 AM on Tuesday 21 Oct 2014 (Local Time) from ORER Reporting Station
Scattered Clouds Scattered Clouds  
Wind Chill: 59°   Ceiling: Unl
Heat Index: 59°   Visibility: 4mi
Dew Point: 59°   Wind: 10mph
Humidity: 100%   Direction: 170°S
Pressure: 29.77"   Gusts: NA
Location:  36.19°N, 44.01°E
Report Text: ORER 210000Z 17009KT 7000 SCT050 15/15 Q1008 NOSIG
Loading
Personal Weather Stations






























Interactive Weather Map
Tropical Storm Tracking
New forecast layout! Learn more

10-Day Weather Forecast

Advertisements
Track Severe Weather on mobile